Time,TemperatureF,DewpointF,PressureIn,WindDirection,WindDirectionDegrees,WindSpeedMPH,WindSpeedGustMPH,Humidity,HourlyPrecipIn,Conditions,Clouds,dailyrainin,SolarRadiationWatts/m^2,SoftwareType,DateUTC
2013-06-28 00:02:00,80.1,74.1,29.96,WSW,237,0.0,0.0,82,0.00,,,0.00,0,Wunderground v.1.15,2013-06-28 04:02:00,
2013-06-28 00:07:00,80.1,74.1,29.96,WSW,237,0.0,0.0,82,0.00,,,0.00,0,Wunderground v.1.15,2013-06-28 04:07:00,
2013-06-28 00:12:00,80.1,74.5,29.96,WSW,237,0.0,0.0,83,0.00,,,0.00,0,Wunderground v.1.15,2013-06-28 04:12:00,
2013-06-28 00:17:00,79.9,74.3,29.96,WSW,237,0.0,0.0,83,0.00,,,0.00,0,Wunderground v.1.15,2013-06-28 04:17:00,
2013-06-28 00:22:00,79.8,74.2,29.96,WSW,237,0.0,0.0,83,0.00,,,0.00,0,Wunderground v.1.15,2013-06-28 04:22:00,
2013-06-28 00:32:00,79.8,74.5,29.97,WSW,237,0.0,0.0,84,0.00,,,0.00,0,Wunderground v.1.15,2013-06-28 04:32:00,
2013-06-28 00:42:00,79.8,74.5,29.97,WSW,237,0.0,0.0,84,0.00,,,0.00,0,Wunderground v.1.15,2013-06-28 04:42:00,
2013-06-28 00:47:00,79.6,74.3,29.97,WSW,237,0.0,0.0,84,0.00,,,0.00,0,Wunderground v.1.15,2013-06-28 04:47:00,
2013-06-28 00:57:00,79.6,74.7,29.97,WSW,237,0.0,0.0,85,0.00,,,0.00,0,Wunderground v.1.15,2013-06-28 04:57:00,
2013-06-28 01:02:00,79.6,74.7,29.97,WSW,237,0.0,0.0,85,0.00,,,0.00,0,Wunderground v.1.15,2013-06-28 05:02:00,
2013-06-28 01:07:00,79.4,74.5,29.96,WSW,237,0.0,0.0,85,0.00,,,0.00,0,Wunderground v.1.15,2013-06-28 05:07:00,
2013-06-28 01:17:00,79.4,74.5,29.96,WSW,237,0.0,0.0,85,0.00,,,0.00,0,Wunderground v.1.15,2013-06-28 05:17:00,
2013-06-28 01:22:00,79.2,74.6,29.96,WSW,237,0.0,0.0,86,0.00,,,0.00,0,Wunderground v.1.15,2013-06-28 05:22:00,
2013-06-28 01:32:00,79.0,74.5,29.96,WSW,237,0.0,0.0,86,0.00,,,0.00,0,Wunderground v.1.15,2013-06-28 05:32:00,
2013-06-28 01:37:00,79.0,74.5,29.97,WSW,237,0.0,0.0,86,0.00,,,0.00,0,Wunderground v.1.15,2013-06-28 05:37:00,
2013-06-28 01:47:00,78.8,74.3,29.97,WSW,237,0.0,0.0,86,0.00,,,0.00,0,Wunderground v.1.15,2013-06-28 05:47:00,
2013-06-28 01:52:00,78.8,74.3,29.97,WSW,237,0.0,0.0,86,0.00,,,0.00,0,Wunderground v.1.15,2013-06-28 05:52:00,
2013-06-28 02:02:00,78.6,74.4,29.96,WSW,237,0.0,0.0,87,0.00,,,0.00,0,Wunderground v.1.15,2013-06-28 06:02:00,
2013-06-28 02:07:00,78.6,74.4,29.96,WSW,237,0.0,0.0,87,0.00,,,0.00,0,Wunderground v.1.15,2013-06-28 06:07:00,
2013-06-28 02:12:00,78.5,74.3,29.96,WSW,237,0.0,0.0,87,0.00,,,0.00,0,Wunderground v.1.15,2013-06-28 06:12:00,
2013-06-28 02:17:00,78.5,74.3,29.96,WSW,237,0.0,0.0,87,0.00,,,0.00,0,Wunderground v.1.15,2013-06-28 06:17:00,
2013-06-28 02:27:00,78.3,74.1,29.96,WSW,237,0.0,0.0,87,0.00,,,0.00,0,Wunderground v.1.15,2013-06-28 06:27:00,
2013-06-28 02:32:00,78.3,74.1,29.95,WSW,237,0.0,0.0,87,0.00,,,0.00,0,Wunderground v.1.15,2013-06-28 06:32:00,
2013-06-28 02:42:00,78.1,73.9,29.95,WSW,237,0.0,0.0,87,0.00,,,0.00,0,Wunderground v.1.15,2013-06-28 06:42:00,
2013-06-28 02:52:00,78.3,74.5,29.95,WSW,237,0.0,0.0,88,0.00,,,0.00,0,Wunderground v.1.15,2013-06-28 06:52:00,
2013-06-28 02:57:00,78.1,74.3,29.95,WSW,237,0.0,0.0,88,0.00,,,0.00,0,Wunderground v.1.15,2013-06-28 06:57:00,
2013-06-28 03:02:00,78.1,74.3,29.95,SW,234,0.0,0.0,88,0.00,,,0.00,0,Wunderground v.1.15,2013-06-28 07:02:00,
2013-06-28 03:07:00,78.1,74.3,29.95,WSW,237,0.0,0.0,88,0.00,,,0.00,0,Wunderground v.1.15,2013-06-28 07:07:00,
2013-06-28 03:17:00,77.9,74.1,29.95,WSW,237,0.0,0.0,88,0.00,,,0.00,0,Wunderground v.1.15,2013-06-28 07:17:00,
2013-06-28 03:22:00,77.9,74.1,29.95,WSW,237,0.0,0.0,88,0.00,,,0.00,0,Wunderground v.1.15,2013-06-28 07:22:00,
2013-06-28 03:32:00,77.7,74.2,29.94,SSW,195,0.0,2.0,89,0.00,,,0.00,0,Wunderground v.1.15,2013-06-28 07:32:00,
2013-06-28 03:37:00,77.7,74.2,29.94,South,188,1.0,2.0,89,0.00,,,0.00,0,Wunderground v.1.15,2013-06-28 07:37:00,
2013-06-28 03:42:00,77.7,74.2,29.94,South,188,1.0,1.0,89,0.00,,,0.00,0,Wunderground v.1.15,2013-06-28 07:42:00,
2013-06-28 03:52:00,77.7,74.2,29.94,South,188,0.0,0.0,89,0.00,,,0.00,0,Wunderground v.1.15,2013-06-28 07:52:00,
2013-06-28 03:57:00,77.7,74.2,29.94,South,188,0.0,0.0,89,0.00,,,0.00,0,Wunderground v.1.15,2013-06-28 07:57:00,
2013-06-28 04:07:00,77.6,74.1,29.94,South,188,0.0,0.0,89,0.00,,,0.00,0,Wunderground v.1.15,2013-06-28 08:07:00,
2013-06-28 04:12:00,77.6,74.4,29.94,South,188,0.0,0.0,90,0.00,,,0.00,0,Wunderground v.1.15,2013-06-28 08:12:00,
2013-06-28 04:22:00,77.6,74.4,29.94,South,188,0.0,2.0,90,0.00,,,0.00,0,Wunderground v.1.15,2013-06-28 08:22:00,
2013-06-28 04:27:00,77.6,74.4,29.93,South,184,1.0,2.0,90,0.00,,,0.00,0,Wunderground v.1.15,2013-06-28 08:27:00,
2013-06-28 04:32:00,77.6,74.4,29.93,South,184,1.0,2.0,90,0.00,,,0.00,0,Wunderground v.1.15,2013-06-28 08:32:00,
2013-06-28 04:37:00,77.6,74.4,29.93,South,182,1.0,2.0,90,0.00,,,0.00,0,Wunderground v.1.15,2013-06-28 08:37:00,
2013-06-28 04:47:00,77.6,74.4,29.93,SSE,164,2.0,2.0,90,0.00,,,0.00,0,Wunderground v.1.15,2013-06-28 08:47:00,
2013-06-28 04:52:00,77.6,74.4,29.93,SSE,158,2.0,2.0,90,0.00,,,0.00,0,Wunderground v.1.15,2013-06-28 08:52:00,
2013-06-28 05:02:00,77.6,74.4,29.93,SSE,158,0.0,0.0,90,0.00,,,0.00,0,Wunderground v.1.15,2013-06-28 09:02:00,
2013-06-28 05:07:00,77.4,74.2,29.93,SSE,158,0.0,0.0,90,0.00,,,0.00,0,Wunderground v.1.15,2013-06-28 09:07:00,
2013-06-28 05:17:00,77.4,74.2,29.93,SSE,158,0.0,0.0,90,0.00,,,0.00,0,Wunderground v.1.15,2013-06-28 09:17:00,
2013-06-28 05:22:00,77.2,74.0,29.92,SSE,157,0.0,2.0,90,0.00,,,0.00,0,Wunderground v.1.15,2013-06-28 09:22:00,
2013-06-28 05:32:00,77.2,74.0,29.93,SSE,154,1.0,1.0,90,0.00,,,0.00,0,Wunderground v.1.15,2013-06-28 09:32:00,
2013-06-28 05:37:00,77.0,73.8,29.93,SSE,154,0.0,1.0,90,0.00,,,0.00,0,Wunderground v.1.15,2013-06-28 09:37:00,
2013-06-28 05:42:00,77.0,73.8,29.93,SSE,154,0.0,0.0,90,0.00,,,0.00,0,Wunderground v.1.15,2013-06-28 09:42:00,
2013-06-28 05:52:00,76.8,73.6,29.93,SSE,154,0.0,0.0,90,0.00,,,0.00,0,Wunderground v.1.15,2013-06-28 09:52:00,
2013-06-28 05:57:00,76.7,73.5,29.93,SSE,154,0.0,0.0,90,0.00,,,0.00,0,Wunderground v.1.15,2013-06-28 09:57:00,
2013-06-28 06:07:00,76.7,73.5,29.94,SSE,154,0.0,0.0,90,0.00,,,0.00,0,Wunderground v.1.15,2013-06-28 10:07:00,
2013-06-28 06:12:00,76.7,73.5,29.94,SSE,154,0.0,0.0,90,0.00,,,0.00,0,Wunderground v.1.15,2013-06-28 10:12:00,
2013-06-28 06:17:00,76.5,73.3,29.94,SSE,154,0.0,0.0,90,0.00,,,0.00,0,Wunderground v.1.15,2013-06-28 10:17:00,
2013-06-28 06:22:00,76.5,73.3,29.95,SSE,154,0.0,0.0,90,0.00,,,0.00,0,Wunderground v.1.15,2013-06-28 10:22:00,
2013-06-28 06:27:00,76.5,73.3,29.95,SSE,154,0.0,0.0,90,0.00,,,0.00,0,Wunderground v.1.15,2013-06-28 10:27:00,
2013-06-28 06:37:00,76.3,73.1,29.95,SSE,154,0.0,0.0,90,0.00,,,0.00,0,Wunderground v.1.15,2013-06-28 10:37:00,
2013-06-28 06:42:00,76.3,73.1,29.94,SSE,154,0.0,0.0,90,0.00,,,0.00,0,Wunderground v.1.15,2013-06-28 10:42:00,
2013-06-28 06:47:00,76.3,73.5,29.94,SSE,154,0.0,0.0,91,0.00,,,0.00,0,Wunderground v.1.15,2013-06-28 10:47:00,
2013-06-28 06:52:00,76.3,73.5,29.94,SSE,150,0.0,0.0,91,0.00,,,0.00,9,Wunderground v.1.15,2013-06-28 10:52:00,
2013-06-28 07:02:00,76.3,73.5,29.94,SSE,154,0.0,2.0,91,0.00,,,0.00,16,Wunderground v.1.15,2013-06-28 11:02:00,
2013-06-28 07:07:00,76.3,73.5,29.94,SSE,152,0.0,2.0,91,0.00,,,0.00,19,Wunderground v.1.15,2013-06-28 11:07:00,
2013-06-28 07:12:00,76.3,73.5,29.94,SSE,154,0.0,0.0,91,0.00,,,0.00,23,Wunderground v.1.15,2013-06-28 11:12:00,
2013-06-28 07:22:00,76.7,73.9,29.95,SSE,154,0.0,0.0,91,0.00,,,0.00,32,Wunderground v.1.15,2013-06-28 11:22:00,
2013-06-28 07:32:00,77.0,74.5,29.95,SSE,148,0.0,1.0,92,0.00,,,0.00,33,Wunderground v.1.15,2013-06-28 11:32:00,
2013-06-28 07:37:00,77.2,74.7,29.95,SSE,148,0.0,1.0,92,0.00,,,0.00,33,Wunderground v.1.15,2013-06-28 11:37:00,
2013-06-28 07:42:00,77.6,75.1,29.95,SSE,148,1.0,3.0,92,0.00,,,0.00,33,Wunderground v.1.15,2013-06-28 11:42:00,
2013-06-28 07:52:00,77.9,75.4,29.94,SSE,151,1.0,2.0,92,0.00,,,0.00,32,Wunderground v.1.15,2013-06-28 11:52:00,
2013-06-28 08:02:00,78.3,75.8,29.95,SSE,150,1.0,1.0,92,0.00,,,0.00,32,Wunderground v.1.15,2013-06-28 12:02:00,
2013-06-28 08:12:00,78.6,76.1,29.95,SSE,151,0.0,0.0,92,0.00,,,0.00,42,Wunderground v.1.15,2013-06-28 12:12:00,
2013-06-28 08:17:00,78.8,76.3,29.95,SSE,150,0.0,0.0,92,0.00,,,0.00,53,Wunderground v.1.15,2013-06-28 12:17:00,
2013-06-28 08:22:00,79.0,76.1,29.95,SSE,150,0.0,0.0,91,0.00,,,0.00,70,Wunderground v.1.15,2013-06-28 12:22:00,
2013-06-28 08:27:00,79.0,76.1,29.95,South,191,1.0,1.0,91,0.00,,,0.00,63,Wunderground v.1.15,2013-06-28 12:27:00,
2013-06-28 08:32:00,79.2,76.3,29.95,SW,215,1.0,1.0,91,0.00,,,0.00,63,Wunderground v.1.15,2013-06-28 12:32:00,
2013-06-28 08:42:00,79.8,76.6,29.95,SSW,213,3.0,3.0,90,0.00,,,0.00,88,Wunderground v.1.15,2013-06-28 12:42:00,
2013-06-28 08:47:00,80.1,76.6,29.95,SSW,206,4.0,5.0,89,0.00,,,0.00,67,Wunderground v.1.15,2013-06-28 12:47:00,
2013-06-28 08:52:00,80.3,76.4,29.95,South,191,4.0,4.0,88,0.00,,,0.00,48,Wunderground v.1.15,2013-06-28 12:52:00,
2013-06-28 08:57:00,80.7,76.5,29.95,SW,233,3.0,4.0,87,0.00,,,0.00,51,Wunderground v.1.15,2013-06-28 12:57:00,
2013-06-28 09:02:00,81.1,76.2,29.95,SW,223,4.0,4.0,85,0.00,,,0.00,55,Wunderground v.1.15,2013-06-28 13:02:00,
2013-06-28 09:12:00,82.0,76.3,29.95,SW,217,5.0,7.0,83,0.00,,,0.00,107,Wunderground v.1.15,2013-06-28 13:12:00,
2013-06-28 09:17:00,82.4,76.3,29.94,SSW,210,4.0,7.0,82,0.00,,,0.00,155,Wunderground v.1.15,2013-06-28 13:17:00,
2013-06-28 09:22:00,83.4,76.6,29.94,SW,230,4.0,4.0,80,0.00,,,0.00,489,Wunderground v.1.15,2013-06-28 13:22:00,
2013-06-28 09:27:00,84.7,75.9,29.94,WSW,239,4.0,7.0,75,0.00,,,0.00,567,Wunderground v.1.15,2013-06-28 13:27:00,
2013-06-28 09:37:00,84.7,74.7,29.94,SW,223,6.0,10.0,72,0.00,,,0.00,125,Wunderground v.1.15,2013-06-28 13:37:00,
2013-06-28 09:42:00,84.7,75.1,29.94,SW,216,6.0,7.0,73,0.00,,,0.00,589,Wunderground v.1.15,2013-06-28 13:42:00,
2013-06-28 09:52:00,85.9,75.0,29.94,SW,234,4.0,8.0,70,0.00,,,0.00,100,Wunderground v.1.15,2013-06-28 13:52:00,
2013-06-28 09:57:00,85.7,74.8,29.94,WSW,247,6.0,8.0,70,0.00,,,0.00,633,Wunderground v.1.15,2013-06-28 13:57:00,
2013-06-28 10:07:00,86.5,74.7,29.94,SW,215,6.0,7.0,68,0.00,,,0.00,686,Wunderground v.1.15,2013-06-28 14:07:00,
2013-06-28 10:17:00,87.0,74.7,29.93,SW,236,6.0,10.0,67,0.00,,,0.00,716,Wunderground v.1.15,2013-06-28 14:17:00,
2013-06-28 10:22:00,87.2,75.3,29.93,SW,223,6.0,6.0,68,0.00,,,0.00,748,Wunderground v.1.15,2013-06-28 14:22:00,
2013-06-28 10:27:00,87.6,75.3,29.93,SW,233,6.0,6.0,67,0.00,,,0.00,757,Wunderground v.1.15,2013-06-28 14:27:00,
2013-06-28 10:32:00,87.4,75.1,29.93,SSE,154,6.0,6.0,67,0.00,,,0.00,779,Wunderground v.1.15,2013-06-28 14:32:00,
2013-06-28 10:42:00,87.6,74.8,29.93,SSE,162,4.0,8.0,66,0.00,,,0.00,866,Wunderground v.1.15,2013-06-28 14:42:00,
2013-06-28 10:47:00,87.8,74.1,29.93,SW,236,5.0,8.0,64,0.00,,,0.00,845,Wunderground v.1.15,2013-06-28 14:47:00,
2013-06-28 10:57:00,88.2,74.9,29.93,SSW,209,6.0,6.0,65,0.00,,,0.00,815,Wunderground v.1.15,2013-06-28 14:57:00,
2013-06-28 11:02:00,88.2,74.0,29.93,WSW,240,6.0,6.0,63,0.00,,,0.00,818,Wunderground v.1.15,2013-06-28 15:02:00,
2013-06-28 11:07:00,88.2,74.5,29.93,SSE,158,6.0,6.0,64,0.00,,,0.00,841,Wunderground v.1.15,2013-06-28 15:07:00,
2013-06-28 11:12:00,87.8,74.1,29.93,SW,223,6.0,7.0,64,0.00,,,0.00,850,Wunderground v.1.15,2013-06-28 15:12:00,
2013-06-28 11:17:00,88.0,74.3,29.93,SW,227,6.0,7.0,64,0.00,,,0.00,850,Wunderground v.1.15,2013-06-28 15:17:00,
2013-06-28 11:22:00,87.8,74.1,29.93,South,175,7.0,11.0,64,0.00,,,0.00,908,Wunderground v.1.15,2013-06-28 15:22:00,
2013-06-28 11:32:00,88.8,75.0,29.93,SW,229,5.0,6.0,64,0.00,,,0.00,918,Wunderground v.1.15,2013-06-28 15:32:00,
2013-06-28 11:37:00,88.6,75.3,29.93,SW,226,6.0,6.0,65,0.00,,,0.00,943,Wunderground v.1.15,2013-06-28 15:37:00,
2013-06-28 11:42:00,88.6,75.8,29.94,WSW,244,6.0,6.0,66,0.00,,,0.00,998,Wunderground v.1.15,2013-06-28 15:42:00,
2013-06-28 11:47:00,88.2,75.4,29.94,SW,232,6.0,6.0,66,0.00,,,0.00,223,Wunderground v.1.15,2013-06-28 15:47:00,
2013-06-28 11:57:00,88.6,75.3,29.93,SW,222,7.0,7.0,65,0.00,,,0.00,1065,Wunderground v.1.15,2013-06-28 15:57:00,
2013-06-28 12:02:00,88.0,75.2,29.93,SW,236,6.0,8.0,66,0.00,,,0.00,206,Wunderground v.1.15,2013-06-28 16:02:00,
2013-06-28 12:07:00,88.6,76.2,29.93,SSW,198,7.0,8.0,67,0.00,,,0.00,1098,Wunderground v.1.15,2013-06-28 16:07:00,
2013-06-28 12:12:00,88.8,76.4,29.93,SW,233,7.0,7.0,67,0.00,,,0.00,227,Wunderground v.1.15,2013-06-28 16:12:00,
2013-06-28 12:22:00,88.4,75.6,29.93,SW,233,8.0,8.0,66,0.00,,,0.00,1094,Wunderground v.1.15,2013-06-28 16:22:00,
2013-06-28 12:27:00,89.0,75.2,29.92,SW,216,8.0,9.0,64,0.00,,,0.00,1147,Wunderground v.1.15,2013-06-28 16:27:00,
2013-06-28 12:32:00,89.5,74.8,29.92,WSW,237,7.0,7.0,62,0.00,,,0.00,1131,Wunderground v.1.15,2013-06-28 16:32:00,
2013-06-28 12:37:00,88.6,74.9,29.92,SW,236,8.0,8.0,64,0.00,,,0.00,257,Wunderground v.1.15,2013-06-28 16:37:00,
2013-06-28 12:47:00,89.7,74.9,29.92,West,278,8.0,12.0,62,0.00,,,0.00,1133,Wunderground v.1.15,2013-06-28 16:47:00,
2013-06-28 12:52:00,89.0,74.8,29.92,SW,230,8.0,8.0,63,0.00,,,0.00,1047,Wunderground v.1.15,2013-06-28 16:52:00,
2013-06-28 12:57:00,89.7,75.9,29.92,SW,216,7.0,8.0,64,0.00,,,0.00,1059,Wunderground v.1.15,2013-06-28 16:57:00,
2013-06-28 13:02:00,89.7,75.4,29.92,NW,305,7.0,7.0,63,0.00,,,0.00,1040,Wunderground v.1.15,2013-06-28 17:02:00,
2013-06-28 13:07:00,89.0,73.8,29.92,SSW,209,8.0,9.0,61,0.00,,,0.00,989,Wunderground v.1.15,2013-06-28 17:07:00,
2013-06-28 13:12:00,89.7,75.9,29.92,SSW,212,7.0,8.0,64,0.00,,,0.00,1075,Wunderground v.1.15,2013-06-28 17:12:00,
2013-06-28 13:17:00,89.5,75.7,29.92,WSW,244,6.0,11.0,64,0.00,,,0.00,1075,Wunderground v.1.15,2013-06-28 17:17:00,
2013-06-28 13:22:00,89.3,74.1,29.92,SW,232,6.0,10.0,61,0.00,,,0.00,1073,Wunderground v.1.15,2013-06-28 17:22:00,
2013-06-28 13:27:00,89.7,75.9,29.92,SW,236,8.0,11.0,64,0.00,,,0.00,1057,Wunderground v.1.15,2013-06-28 17:27:00,
2013-06-28 13:32:00,90.5,75.2,29.92,SW,220,7.0,8.0,61,0.00,,,0.00,1182,Wunderground v.1.15,2013-06-28 17:32:00,
2013-06-28 13:42:00,89.3,74.6,29.92,WSW,247,8.0,8.0,62,0.00,,,0.00,310,Wunderground v.1.15,2013-06-28 17:42:00,
2013-06-28 13:47:00,88.4,74.2,29.92,SW,224,9.0,9.0,63,0.00,,,0.00,238,Wunderground v.1.15,2013-06-28 17:47:00,
2013-06-28 13:57:00,89.3,75.5,29.91,WSW,251,7.0,17.0,64,0.00,,,0.00,1042,Wunderground v.1.15,2013-06-28 17:57:00,
2013-06-28 14:02:00,90.1,75.8,29.90,NW,308,7.0,7.0,63,0.00,,,0.00,1200,Wunderground v.1.15,2013-06-28 18:02:00,
2013-06-28 14:07:00,90.5,75.7,29.90,SW,229,7.0,8.0,62,0.00,,,0.00,1233,Wunderground v.1.15,2013-06-28 18:07:00,
2013-06-28 14:12:00,89.3,76.4,29.91,WSW,247,7.0,7.0,66,0.00,,,0.00,324,Wunderground v.1.15,2013-06-28 18:12:00,
2013-06-28 14:17:00,88.8,75.5,29.90,West,261,6.0,11.0,65,0.00,,,0.00,282,Wunderground v.1.15,2013-06-28 18:17:00,
2013-06-28 14:22:00,89.3,75.0,29.90,SW,230,7.0,7.0,63,0.00,,,0.00,1204,Wunderground v.1.15,2013-06-28 18:22:00,
2013-06-28 14:27:00,90.3,76.0,29.90,WSW,243,8.0,8.0,63,0.00,,,0.00,1182,Wunderground v.1.15,2013-06-28 18:27:00,
2013-06-28 14:37:00,89.7,74.5,29.90,SW,219,7.0,13.0,61,0.00,,,0.00,253,Wunderground v.1.15,2013-06-28 18:37:00,
2013-06-28 14:42:00,89.9,74.6,29.90,WSW,243,7.0,7.0,61,0.00,,,0.00,345,Wunderground v.1.15,2013-06-28 18:42:00,
2013-06-28 14:47:00,89.3,75.5,29.90,SSW,210,7.0,7.0,64,0.00,,,0.00,392,Wunderground v.1.15,2013-06-28 18:47:00,
2013-06-28 14:52:00,90.1,75.3,29.89,WNW,282,7.0,7.0,62,0.00,,,0.00,1072,Wunderground v.1.15,2013-06-28 18:52:00,
2013-06-28 14:57:00,90.7,75.9,29.89,SW,229,8.0,11.0,62,0.00,,,0.00,326,Wunderground v.1.15,2013-06-28 18:57:00,
2013-06-28 15:07:00,89.9,75.1,29.88,SW,234,8.0,12.0,62,0.00,,,0.00,1022,Wunderground v.1.15,2013-06-28 19:07:00,
2013-06-28 15:12:00,88.6,74.4,29.88,WNW,287,8.0,12.0,63,0.00,,,0.00,215,Wunderground v.1.15,2013-06-28 19:12:00,
2013-06-28 15:17:00,88.6,76.2,29.88,WSW,237,7.0,12.0,67,0.00,,,0.00,908,Wunderground v.1.15,2013-06-28 19:17:00,
2013-06-28 15:27:00,88.2,76.7,29.88,NW,312,6.0,6.0,69,0.00,,,0.00,318,Wunderground v.1.15,2013-06-28 19:27:00,
2013-06-28 15:37:00,89.0,76.6,29.88,SW,224,7.0,7.0,67,0.00,,,0.00,934,Wunderground v.1.15,2013-06-28 19:37:00,
2013-06-28 15:42:00,89.5,76.6,29.88,West,280,6.0,6.0,66,0.00,,,0.00,911,Wunderground v.1.15,2013-06-28 19:42:00,
2013-06-28 15:47:00,88.8,76.4,29.88,WSW,256,7.0,14.0,67,0.00,,,0.00,911,Wunderground v.1.15,2013-06-28 19:47:00,
2013-06-28 15:52:00,89.3,76.4,29.88,WSW,237,8.0,8.0,66,0.00,,,0.00,911,Wunderground v.1.15,2013-06-28 19:52:00,
2013-06-28 15:57:00,89.7,75.4,29.88,West,267,8.0,8.0,63,0.00,,,0.00,873,Wunderground v.1.15,2013-06-28 19:57:00,
2013-06-28 16:07:00,88.4,74.7,29.88,WSW,243,9.0,13.0,64,0.00,,,0.00,194,Wunderground v.1.15,2013-06-28 20:07:00,
2013-06-28 16:17:00,87.4,76.0,29.87,West,260,8.0,8.0,69,0.00,,,0.00,171,Wunderground v.1.15,2013-06-28 20:17:00,
2013-06-28 16:22:00,87.6,76.6,29.87,WSW,251,8.0,8.0,70,0.00,,,0.00,171,Wunderground v.1.15,2013-06-28 20:22:00,
2013-06-28 16:27:00,88.0,75.7,29.87,West,281,7.0,8.0,67,0.00,,,0.00,765,Wunderground v.1.15,2013-06-28 20:27:00,
2013-06-28 16:32:00,88.8,75.0,29.87,SW,230,7.0,8.0,64,0.00,,,0.00,697,Wunderground v.1.15,2013-06-28 20:32:00,
2013-06-28 16:37:00,89.0,74.8,29.86,SW,232,7.0,8.0,63,0.00,,,0.00,528,Wunderground v.1.15,2013-06-28 20:37:00,
2013-06-28 16:42:00,89.0,74.3,29.87,WSW,253,6.0,6.0,62,0.00,,,0.00,542,Wunderground v.1.15,2013-06-28 20:42:00,
2013-06-28 16:47:00,89.0,74.8,29.87,SW,227,6.0,15.0,63,0.00,,,0.00,554,Wunderground v.1.15,2013-06-28 20:47:00,
2013-06-28 16:57:00,88.4,75.6,29.86,WSW,243,7.0,7.0,66,0.00,,,0.00,387,Wunderground v.1.15,2013-06-28 20:57:00,
2013-06-28 17:07:00,87.8,75.0,29.86,WSW,244,6.0,10.0,66,0.00,,,0.00,373,Wunderground v.1.15,2013-06-28 21:07:00,
2013-06-28 17:12:00,87.4,75.1,29.86,WSW,241,6.0,6.0,67,0.00,,,0.00,431,Wunderground v.1.15,2013-06-28 21:12:00,
2013-06-28 17:17:00,87.6,75.3,29.86,SW,216,6.0,6.0,67,0.00,,,0.00,433,Wunderground v.1.15,2013-06-28 21:17:00,
2013-06-28 17:27:00,87.6,75.7,29.85,SSW,199,5.0,8.0,68,0.00,,,0.00,410,Wunderground v.1.15,2013-06-28 21:27:00,
2013-06-28 17:32:00,87.6,75.7,29.85,WSW,244,6.0,6.0,68,0.00,,,0.00,435,Wunderground v.1.15,2013-06-28 21:32:00,
2013-06-28 17:37:00,87.6,75.3,29.85,SSW,192,8.0,8.0,67,0.00,,,0.00,431,Wunderground v.1.15,2013-06-28 21:37:00,
2013-06-28 17:47:00,88.0,76.5,29.84,WNW,296,5.0,9.0,69,0.00,,,0.00,489,Wunderground v.1.15,2013-06-28 21:47:00,
2013-06-28 17:52:00,87.4,75.5,29.85,SW,217,5.0,5.0,68,0.00,,,0.00,206,Wunderground v.1.15,2013-06-28 21:52:00,
2013-06-28 17:57:00,87.6,76.2,29.85,SW,222,5.0,6.0,69,0.00,,,0.00,415,Wunderground v.1.15,2013-06-28 21:57:00,
2013-06-28 18:07:00,87.6,76.6,29.84,WSW,240,7.0,9.0,70,0.00,,,0.00,405,Wunderground v.1.15,2013-06-28 22:07:00,
2013-06-28 18:12:00,87.4,76.0,29.84,WSW,244,6.0,6.0,69,0.00,,,0.00,157,Wunderground v.1.15,2013-06-28 22:12:00,
2013-06-28 18:17:00,87.2,75.8,29.84,SW,227,6.0,7.0,69,0.00,,,0.00,338,Wunderground v.1.15,2013-06-28 22:17:00,
2013-06-28 18:22:00,87.2,76.2,29.85,WSW,247,5.0,8.0,70,0.00,,,0.00,158,Wunderground v.1.15,2013-06-28 22:22:00,
2013-06-28 18:27:00,87.2,76.2,29.85,SW,232,3.0,8.0,70,0.00,,,0.00,150,Wunderground v.1.15,2013-06-28 22:27:00,
2013-06-28 18:32:00,87.0,76.5,29.85,West,260,3.0,5.0,71,0.00,,,0.00,311,Wunderground v.1.15,2013-06-28 22:32:00,
2013-06-28 18:42:00,86.7,75.7,29.86,West,263,5.0,5.0,70,0.00,,,0.00,218,Wunderground v.1.15,2013-06-28 22:42:00,
2013-06-28 18:47:00,86.7,76.2,29.86,West,271,4.0,10.0,71,0.00,,,0.00,169,Wunderground v.1.15,2013-06-28 22:47:00,
2013-06-28 18:52:00,86.5,76.0,29.86,SW,222,5.0,5.0,71,0.00,,,0.00,141,Wunderground v.1.15,2013-06-28 22:52:00,
2013-06-28 18:57:00,86.3,75.8,29.86,SW,226,5.0,9.0,71,0.00,,,0.00,130,Wunderground v.1.15,2013-06-28 22:57:00,
2013-06-28 19:02:00,86.3,75.8,29.86,WSW,239,5.0,5.0,71,0.00,,,0.00,120,Wunderground v.1.15,2013-06-28 23:02:00,
2013-06-28 19:07:00,86.3,75.8,29.86,SSW,193,5.0,5.0,71,0.00,,,0.00,107,Wunderground v.1.15,2013-06-28 23:07:00,
2013-06-28 19:17:00,86.1,75.6,29.86,SW,229,5.0,5.0,71,0.00,,,0.00,88,Wunderground v.1.15,2013-06-28 23:17:00,
2013-06-28 19:22:00,86.1,75.6,29.86,SSW,209,4.0,5.0,71,0.00,,,0.00,79,Wunderground v.1.15,2013-06-28 23:22:00,
2013-06-28 19:32:00,85.9,75.4,29.86,WSW,243,4.0,4.0,71,0.00,,,0.00,63,Wunderground v.1.15,2013-06-28 23:32:00,
2013-06-28 19:37:00,85.7,75.2,29.86,SSW,203,4.0,4.0,71,0.00,,,0.00,55,Wunderground v.1.15,2013-06-28 23:37:00,
2013-06-28 19:42:00,85.5,75.0,29.86,SW,220,4.0,4.0,71,0.00,,,0.00,49,Wunderground v.1.15,2013-06-28 23:42:00,
2013-06-28 19:47:00,85.3,75.2,29.87,SW,217,3.0,6.0,72,0.00,,,0.00,44,Wunderground v.1.15,2013-06-28 23:47:00,
2013-06-28 19:52:00,85.3,75.7,29.87,WSW,250,4.0,4.0,73,0.00,,,0.00,42,Wunderground v.1.15,2013-06-28 23:52:00,
2013-06-28 20:02:00,84.9,74.9,29.87,WSW,246,4.0,5.0,72,0.00,,,0.00,28,Wunderground v.1.15,2013-06-29 00:02:00,
2013-06-28 20:12:00,84.5,74.5,29.87,WSW,254,5.0,5.0,72,0.00,,,0.00,21,Wunderground v.1.15,2013-06-29 00:12:00,
2013-06-28 20:17:00,84.3,74.3,29.87,SW,233,4.0,6.0,72,0.00,,,0.00,14,Wunderground v.1.15,2013-06-29 00:17:00,
2013-06-28 20:27:00,84.3,74.7,29.87,SW,227,5.0,10.0,73,0.00,,,0.00,0,Wunderground v.1.15,2013-06-29 00:27:00,
2013-06-28 20:32:00,84.3,75.1,29.87,SW,223,4.0,4.0,74,0.00,,,0.00,0,Wunderground v.1.15,2013-06-29 00:32:00,
2013-06-28 20:37:00,84.1,74.9,29.87,WSW,254,4.0,6.0,74,0.00,,,0.00,0,Wunderground v.1.15,2013-06-29 00:37:00,
2013-06-28 20:47:00,84.0,75.2,29.87,SW,223,4.0,7.0,75,0.00,,,0.00,0,Wunderground v.1.15,2013-06-29 00:47:00,
2013-06-28 20:57:00,83.8,75.0,29.87,SW,232,3.0,3.0,75,0.00,,,0.00,0,Wunderground v.1.15,2013-06-29 00:57:00,
2013-06-28 21:07:00,83.6,75.2,29.87,WSW,244,3.0,3.0,76,0.00,,,0.00,0,Wunderground v.1.15,2013-06-29 01:07:00,
2013-06-28 21:12:00,83.6,75.2,29.88,West,264,2.0,2.0,76,0.00,,,0.00,0,Wunderground v.1.15,2013-06-29 01:12:00,
2013-06-28 21:22:00,83.2,74.4,29.88,SSW,208,3.0,5.0,75,0.00,,,0.00,0,Wunderground v.1.15,2013-06-29 01:22:00,
2013-06-28 21:32:00,83.2,74.4,29.89,WSW,246,4.0,4.0,75,0.00,,,0.00,0,Wunderground v.1.15,2013-06-29 01:32:00,
2013-06-28 21:37:00,83.0,74.3,29.89,SW,236,4.0,5.0,75,0.00,,,0.00,0,Wunderground v.1.15,2013-06-29 01:37:00,
2013-06-28 21:42:00,83.0,73.9,29.89,WSW,243,4.0,4.0,74,0.00,,,0.00,0,Wunderground v.1.15,2013-06-29 01:42:00,
2013-06-28 21:47:00,83.0,73.9,29.89,WSW,237,3.0,4.0,74,0.00,,,0.00,0,Wunderground v.1.15,2013-06-29 01:47:00,
2013-06-28 21:52:00,83.0,74.3,29.88,SW,220,3.0,5.0,75,0.00,,,0.00,0,Wunderground v.1.15,2013-06-29 01:52:00,
2013-06-28 22:02:00,82.8,74.1,29.89,WSW,243,3.0,3.0,75,0.00,,,0.00,0,Wunderground v.1.15,2013-06-29 02:02:00,
2013-06-28 22:07:00,82.8,74.1,29.89,West,264,3.0,3.0,75,0.00,,,0.00,0,Wunderground v.1.15,2013-06-29 02:07:00,
2013-06-28 22:12:00,82.8,74.1,29.89,WSW,240,2.0,2.0,75,0.00,,,0.00,0,Wunderground v.1.15,2013-06-29 02:12:00,
2013-06-28 22:22:00,82.8,74.5,29.88,SW,223,2.0,2.0,76,0.00,,,0.00,0,Wunderground v.1.15,2013-06-29 02:22:00,
2013-06-28 22:27:00,82.8,74.5,29.88,SW,233,3.0,3.0,76,0.00,,,0.00,0,Wunderground v.1.15,2013-06-29 02:27:00,
2013-06-28 22:32:00,82.8,74.5,29.88,SW,223,2.0,3.0,76,0.00,,,0.00,0,Wunderground v.1.15,2013-06-29 02:32:00,
2013-06-28 22:37:00,82.6,74.7,29.89,WSW,243,2.0,3.0,77,0.00,,,0.00,0,Wunderground v.1.15,2013-06-29 02:37:00,
2013-06-28 22:42:00,82.6,74.7,29.88,SW,229,2.0,2.0,77,0.00,,,0.00,0,Wunderground v.1.15,2013-06-29 02:42:00,
2013-06-28 22:47:00,82.6,75.0,29.88,SW,226,2.0,2.0,78,0.00,,,0.00,0,Wunderground v.1.15,2013-06-29 02:47:00,
2013-06-28 22:57:00,82.6,75.0,29.88,SW,223,2.0,3.0,78,0.00,,,0.00,0,Wunderground v.1.15,2013-06-29 02:57:00,
2013-06-28 23:02:00,82.6,75.0,29.87,SW,233,3.0,5.0,78,0.00,,,0.00,0,Wunderground v.1.15,2013-06-29 03:02:00,
2013-06-28 23:07:00,82.6,75.4,29.87,SSW,208,2.0,5.0,79,0.00,,,0.00,0,Wunderground v.1.15,2013-06-29 03:07:00,
2013-06-28 23:12:00,82.4,75.2,29.87,SSW,209,3.0,3.0,79,0.00,,,0.00,0,Wunderground v.1.15,2013-06-29 03:12:00,
2013-06-28 23:17:00,82.4,75.2,29.88,SW,219,2.0,3.0,79,0.00,,,0.00,0,Wunderground v.1.15,2013-06-29 03:17:00,
2013-06-28 23:22:00,82.4,75.2,29.87,SSW,213,1.0,1.0,79,0.00,,,0.00,0,Wunderground v.1.15,2013-06-29 03:22:00,
2013-06-28 23:32:00,82.2,75.0,29.88,SW,223,1.0,1.0,79,0.00,,,0.00,0,Wunderground v.1.15,2013-06-29 03:32:00,
2013-06-28 23:42:00,82.2,75.4,29.88,SSW,213,1.0,2.0,80,0.00,,,0.00,0,Wunderground v.1.15,2013-06-29 03:42:00,
2013-06-28 23:47:00,82.0,75.2,29.87,SW,233,2.0,3.0,80,0.00,,,0.00,0,Wunderground v.1.15,2013-06-29 03:47:00,
2013-06-28 23:52:00,82.0,75.2,29.87,SW,217,2.0,2.0,80,0.00,,,0.00,0,Wunderground v.1.15,2013-06-29 03:52:00,